Time;durP1;ratioP1;P1;durP2;ratioP2;P2;SDS_P1;SDS_P2;PMS_P1;PMS_P2;Temp;Humidity;BMP_temperature;BMP_pressure;BME280_temperature;BME280_humidity;BME280_pressure;Samples;Min_cycle;Max_cycle;Signal;HPM_P1;HPM_P2
2022/04/26 03:36:41;;;;;;;11.43;5.18;;;;;;;15.56;86.37;101502.28;5065470;28;20035;-56
2022/04/26 03:39:06;;;;;;;11.10;5.13;;;;;;;15.55;86.12;101503.31;5086342;28;20032;-55
2022/04/26 03:41:33;;;;;;;10.18;4.95;;;;;;;15.50;87.51;101500.44;5087749;28;20044;-54
2022/04/26 03:43:59;;;;;;;9.63;4.75;;;;;;;15.49;88.23;101504.97;5079723;28;20037;-55
2022/04/26 03:46:25;;;;;;;;;;;;;;;15.50;88.17;101495.03;5078197;28;20041;-56
2022/04/26 03:48:50;;;;;;;10.47;4.33;;;;;;;15.46;88.88;101504.59;5089380;28;19917;-55
2022/04/26 03:51:17;;;;;;;9.02;5.22;;;;;;;15.40;89.83;101502.72;5085481;28;20044;-54
2022/04/26 03:53:43;;;;;;;7.60;4.43;;;;;;;15.34;85.82;101501.72;5082016;28;20043;-52
2022/04/26 03:56:08;;;;;;;8.53;4.77;;;;;;;15.36;87.37;101504.19;5075395;28;20104;-53
2022/04/26 03:58:34;;;;;;;10.90;5.63;;;;;;;15.30;90.82;101506.69;5091713;28;20033;-56
2022/04/26 04:01:00;;;;;;;17.38;5.88;;;;;;;15.33;91.39;101495.50;5082580;28;20043;-56
2022/04/26 04:03:26;;;;;;;10.30;5.03;;;;;;;15.38;91.46;101500.25;5084391;28;20033;-54
2022/04/26 04:05:52;;;;;;;11.77;5.28;;;;;;;15.32;90.22;101493.84;5089910;28;20041;-54
2022/04/26 04:08:18;;;;;;;13.02;5.47;;;;;;;15.42;91.90;101500.66;5078396;28;20040;-55
2022/04/26 04:10:44;;;;;;;14.02;6.50;;;;;;;15.36;90.73;101504.19;5089674;28;20124;-55
2022/04/26 04:13:10;;;;;;;11.32;4.93;;;;;;;15.43;91.97;101499.59;5083949;28;20024;-57
2022/04/26 04:15:36;;;;;;;10.52;5.68;;;;;;;15.43;92.34;101497.75;5082997;28;20037;-56
2022/04/26 04:18:03;;;;;;;17.98;6.25;;;;;;;15.56;88.94;101504.97;5090715;28;20039;-54
2022/04/26 04:20:31;;;;;;;9.07;5.47;;;;;;;15.35;89.42;101506.06;5078071;28;20074;-56
2022/04/26 04:22:57;;;;;;;12.15;5.82;;;;;;;15.34;91.81;101515.19;5088091;28;20186;-54
2022/04/26 04:25:23;;;;;;;14.43;6.40;;;;;;;15.48;92.51;101518.69;5084594;28;20041;-55
2022/04/26 04:27:49;;;;;;;13.05;5.45;;;;;;;15.54;93.61;101511.59;5080890;28;20096;-55
2022/04/26 04:30:15;;;;;;;13.87;5.40;;;;;;;15.30;87.71;101516.63;5091170;28;20039;-57
2022/04/26 04:32:40;;;;;;;12.03;6.40;;;;;;;15.44;90.73;101520.13;5078791;28;20032;-55
2022/04/26 04:35:06;;;;;;;17.88;7.80;;;;;;;15.58;88.81;101524.44;5086826;28;20045;-56
2022/04/26 04:37:32;;;;;;;9.88;5.40;;;;;;;15.44;91.71;101526.34;5086182;28;20041;-56
2022/04/26 04:39:58;;;;;;;15.70;6.65;;;;;;;15.60;93.66;101535.84;5090550;28;20100;-54
2022/04/26 04:42:24;;;;;;;21.70;7.60;;;;;;;15.52;94.34;101535.25;5075539;28;20109;-54
2022/04/26 04:44:49;;;;;;;9.80;6.10;;;;;;;15.34;96.64;101539.44;5074383;28;20105;-55
2022/04/26 04:47:15;;;;;;;16.52;8.05;;;;;;;15.33;95.66;101544.00;5067818;28;20032;-56
2022/04/26 04:49:40;;;;;;;17.67;8.17;;;;;;;15.11;95.13;101550.66;5065504;28;20053;-55
2022/04/26 04:52:06;;;;;;;14.57;7.68;;;;;;;15.33;96.46;101549.38;5072258;28;20079;-54
2022/04/26 04:54:32;;;;;;;13.48;6.38;;;;;;;15.53;94.58;101550.38;5091383;28;20066;-55
2022/04/26 04:56:58;;;;;;;16.60;7.27;;;;;;;15.50;95.69;101548.94;5069320;28;20092;-56
2022/04/26 04:59:23;;;;;;;16.95;6.95;;;;;;;15.51;97.32;101556.00;5079145;28;20028;-54
2022/04/26 05:01:48;;;;;;;17.37;7.73;;;;;;;15.52;97.19;101563.03;5071207;28;20033;-53
2022/04/26 05:04:14;;;;;;;14.47;7.27;;;;;;;15.48;95.62;101567.22;5063284;28;20301;-53
2022/04/26 05:06:39;;;;;;;14.02;6.20;;;;;;;15.37;90.61;101565.13;5078330;28;20108;-55
2022/04/26 05:09:05;;;;;;;17.93;7.97;;;;;;;15.08;99.99;101564.56;5086423;28;20104;-56
2022/04/26 05:11:31;;;;;;;19.67;6.47;;;;;;;15.45;95.94;101562.22;5075556;28;20044;-55
2022/04/26 05:13:57;;;;;;;19.70;7.55;;;;;;;15.56;94.14;101572.34;5089024;28;20069;-55
2022/04/26 05:16:22;;;;;;;12.60;7.97;;;;;;;15.23;99.65;101577.78;5075918;28;20036;-56
2022/04/26 05:18:48;;;;;;;18.47;7.73;;;;;;;15.32;97.89;101579.22;5071194;28;20276;-52
2022/04/26 05:21:14;;;;;;;20.73;7.90;;;;;;;15.52;89.26;101572.97;5067669;28;20040;-55
2022/04/26 05:26:25;;;;;;;15.80;7.70;;;;;;;15.30;89.89;101576.75;5062121;28;20040;-56
2022/04/26 05:28:50;;;;;;;11.52;7.47;;;;;;;15.57;91.14;101584.81;5066083;28;20033;-52
2022/04/26 05:31:16;;;;;;;14.87;9.60;;;;;;;15.72;91.37;101583.75;5058816;28;20029;-55
2022/04/26 05:33:41;;;;;;;19.43;8.67;;;;;;;15.72;86.83;101587.25;5058730;28;20029;-56
2022/04/26 05:36:07;;;;;;;13.03;7.70;;;;;;;15.65;85.08;101591.00;5090162;28;20301;-55
2022/04/26 05:38:34;;;;;;;15.63;9.97;;;;;;;15.66;90.27;101590.81;5079393;28;20265;-56
2022/04/26 05:41:00;;;;;;;20.85;10.15;;;;;;;15.46;91.08;101588.16;5090838;28;20558;-56
2022/04/26 05:43:25;;;;;;;21.30;9.75;;;;;;;15.77;89.62;101598.22;5078022;28;20036;-54
2022/04/26 05:45:50;;;;;;;16.27;7.60;;;;;;;15.87;84.56;101600.47;5077521;28;20121;-57
2022/04/26 05:48:16;;;;;;;14.23;9.02;;;;;;;15.84;84.16;101600.91;5082639;28;20052;-55
2022/04/26 05:50:42;;;;;;;18.42;10.77;;;;;;;16.02;86.37;101604.81;5093354;28;20055;-55
2022/04/26 05:53:08;;;;;;;18.83;9.60;;;;;;;15.97;85.65;101608.16;5085399;28;20033;-57
2022/04/26 05:55:34;;;;;;;20.40;9.63;;;;;;;16.00;84.35;101606.91;5085945;28;20060;-56
2022/04/26 05:58:01;;;;;;;22.65;9.50;;;;;;;16.00;83.38;101612.31;5081200;28;20104;-55
2022/04/26 06:00:27;;;;;;;18.38;9.18;;;;;;;16.02;85.69;101610.22;5093476;28;20470;-53
2022/04/26 06:02:52;;;;;;;21.80;9.53;;;;;;;16.00;77.17;101615.00;5077325;28;20037;-56
2022/04/26 06:05:18;;;;;;;13.05;8.40;;;;;;;15.78;86.40;101616.06;5087579;28;20350;-56
2022/04/26 06:07:44;;;;;;;21.27;10.30;;;;;;;15.87;83.61;101613.16;5077212;28;20048;-58
2022/04/26 06:10:10;;;;;;;19.87;7.70;;;;;;;16.09;80.25;101624.50;5093563;28;20032;-56
2022/04/26 06:12:36;;;;;;;20.73;9.77;;;;;;;16.13;81.81;101627.63;5064209;28;20032;-55
2022/04/26 06:15:01;;;;;;;22.33;9.83;;;;;;;16.17;82.12;101628.84;5089207;28;20036;-54
2022/04/26 06:17:28;;;;;;;16.85;8.35;;;;;;;15.89;78.53;101617.31;5087598;28;20032;-54
2022/04/26 06:19:54;;;;;;;20.05;8.38;;;;;;;16.04;82.23;101627.03;5079137;28;20033;-57
2022/04/26 06:22:20;;;;;;;23.97;8.30;;;;;;;16.20;81.34;101633.81;5065160;28;20154;-55
2022/04/26 06:24:46;;;;;;;18.33;7.80;;;;;;;16.15;78.82;101631.78;5069117;28;20052;-56
2022/04/26 06:27:12;;;;;;;22.00;9.97;;;;;;;16.25;77.97;101636.69;5088518;28;20048;-56
2022/04/26 06:29:37;;;;;;;16.17;7.37;;;;;;;16.14;79.87;101637.38;5076099;28;20286;-57
2022/04/26 06:32:03;;;;;;;12.02;7.60;;;;;;;16.43;78.91;101644.09;5092062;28;20024;-54
2022/04/26 06:34:29;;;;;;;13.77;8.43;;;;;;;16.48;78.17;101638.88;5079705;28;20029;-54
2022/04/26 06:36:55;;;;;;;16.27;7.35;;;;;;;16.32;78.50;101640.22;5090552;28;20021;-55
2022/04/26 06:39:21;;;;;;;13.70;6.93;;;;;;;16.25;79.86;101639.38;5086453;28;20062;-53
2022/04/26 06:41:47;;;;;;;12.83;6.70;;;;;;;16.27;78.94;101641.88;5082226;28;20111;-55
2022/04/26 06:44:14;;;;;;;16.20;7.30;;;;;;;16.39;77.90;101645.59;5073790;28;20298;-56
2022/04/26 06:46:40;;;;;;;19.60;7.35;;;;;;;16.12;81.51;101640.28;5078623;28;20276;-55
2022/04/26 06:49:06;;;;;;;17.00;6.97;;;;;;;16.34;77.72;101648.06;5095848;28;20061;-59
2022/04/26 06:51:40;;;;;;;15.95;6.70;;;;;;;16.49;76.07;101653.19;5084945;28;20051;-56
2022/04/26 06:54:07;;;;;;;17.63;6.03;;;;;;;16.33;73.42;101651.81;5075811;28;20052;-57
2022/04/26 06:56:33;;;;;;;19.67;6.13;;;;;;;16.17;74.75;101656.69;5092968;28;20276;-57
2022/04/26 06:58:58;;;;;;;14.18;6.00;;;;;;;16.61;72.94;101656.06;5083283;28;20059;-55
2022/04/26 07:01:24;;;;;;;13.67;5.73;;;;;;;16.72;73.98;101658.06;5086592;28;20036;-57
2022/04/26 07:03:49;;;;;;;16.53;5.93;;;;;;;16.89;73.70;101668.38;5090160;28;20112;-55
2022/04/26 07:06:14;;;;;;;10.37;5.13;;;;;;;16.87;71.58;101662.38;5079615;28;20036;-56
2022/04/26 07:08:40;;;;;;;15.50;6.03;;;;;;;16.66;70.94;101664.34;5092629;28;20064;-55
2022/04/26 07:11:06;;;;;;;15.98;5.55;;;;;;;16.92;69.85;101663.34;5083951;28;20032;-55
2022/04/26 07:13:31;;;;;;;8.63;5.53;;;;;;;16.59;70.89;101658.13;5084912;28;20033;-55
2022/04/26 07:15:57;;;;;;;16.67;4.43;;;;;;;16.67;66.80;101666.00;5090677;28;20036;-56
2022/04/26 07:18:22;;;;;;;10.57;5.07;;;;;;;16.81;68.30;101664.06;5079547;28;20095;-56
2022/04/26 07:20:47;;;;;;;16.17;5.80;;;;;;;17.02;68.64;101668.28;5091418;28;20097;-56
2022/04/26 07:23:13;;;;;;;18.67;5.07;;;;;;;17.03;66.56;101669.94;5076170;28;20033;-55
2022/04/26 07:25:40;;;;;;;17.80;5.10;;;;;;;16.92;66.17;101679.56;5076058;28;20040;-59
2022/04/26 07:28:06;;;;;;;9.40;4.88;;;;;;;16.96;66.25;101676.44;5091756;28;20032;-56
2022/04/26 07:30:35;;;;;;;11.18;4.65;;;;;;;17.11;65.37;101687.78;5079257;28;20056;-56
2022/04/26 07:35:46;;;;;;;9.23;3.97;;;;;;;17.33;62.28;101682.84;5088731;28;20345;-55
2022/04/26 07:38:12;;;;;;;8.63;3.90;;;;;;;17.47;60.71;101690.84;5079374;28;20270;-56
2022/04/26 07:40:37;;;;;;;13.13;4.37;;;;;;;17.76;60.88;101689.34;5092359;28;20040;-57
2022/04/26 07:43:04;;;;;;;18.52;4.72;;;;;;;17.82;60.89;101690.31;5082713;28;20032;-55
2022/04/26 07:45:31;;;;;;;12.40;4.87;;;;;;;18.18;59.46;101696.03;5084967;28;20040;-56
2022/04/26 07:47:58;;;;;;;9.30;3.80;;;;;;;17.96;59.20;101701.00;5089672;28;20284;-56
2022/04/26 07:50:24;;;;;;;6.87;3.30;;;;;;;18.14;57.23;101695.63;5078888;28;20041;-56
2022/04/26 07:52:49;;;;;;;7.47;3.38;;;;;;;17.87;57.67;101695.88;5090533;28;20277;-57
2022/04/26 07:55:14;;;;;;;11.23;3.90;;;;;;;18.32;56.80;101697.50;5083959;28;20051;-58
2022/04/26 07:57:40;;;;;;;8.30;4.10;;;;;;;18.46;56.22;101702.75;5083603;28;20060;-53
2022/04/26 08:00:06;;;;;;;6.63;3.67;;;;;;;18.64;55.52;101699.19;5090209;28;20040;-57
2022/04/26 08:02:38;;;;;;;6.40;3.07;;;;;;;18.97;54.97;101703.34;5075511;28;20049;-56
2022/04/26 08:05:03;;;;;;;12.98;4.32;;;;;;;19.16;53.83;101706.03;5082372;28;20289;-57
2022/04/26 08:07:29;;;;;;;8.80;3.50;;;;;;;19.46;52.26;101705.13;5084563;28;20055;-57
2022/04/26 08:09:55;;;;;;;6.40;2.88;;;;;;;19.75;50.47;101710.69;5089369;28;20039;-58
2022/04/26 08:12:21;;;;;;;12.13;4.10;;;;;;;19.88;51.07;101720.47;5078588;28;20032;-57
2022/04/26 08:14:47;;;;;;;9.30;2.92;;;;;;;19.82;49.64;101719.50;5089779;28;20048;-57
2022/04/26 08:17:15;;;;;;;9.43;3.47;;;;;;;20.02;49.19;101723.78;5083153;28;20487;-57
2022/04/26 08:19:44;;;;;;;12.20;3.73;;;;;;;20.17;49.71;101726.84;5083467;28;20033;-57
2022/04/26 08:22:10;;;;;;;10.47;3.90;;;;;;;20.42;48.60;101736.59;5091163;28;20269;-58
2022/04/26 08:27:23;;;;;;;8.00;3.50;;;;;;;20.48;48.03;101730.19;5085938;28;20037;-56
2022/04/26 08:29:49;;;;;;;11.60;4.13;;;;;;;20.79;46.81;101740.84;5087768;28;20273;-57
2022/04/26 08:32:15;;;;;;;16.38;4.93;;;;;;;21.00;46.01;101731.22;5077749;28;20274;-58
2022/04/26 08:34:41;;;;;;;7.47;2.95;;;;;;;20.91;45.61;101740.84;5089800;28;20058;-57
2022/04/26 08:37:06;;;;;;;10.85;3.45;;;;;;;21.09;45.73;101745.22;5081505;28;20064;-57
2022/04/26 08:39:32;;;;;;;13.43;3.35;;;;;;;20.46;47.22;101740.47;5083770;28;20096;-54
2022/04/26 08:41:59;;;;;;;19.70;5.90;;;;;;;20.43;48.15;101737.44;5088498;28;20044;-57
2022/04/26 08:44:29;;;;;;;7.63;4.10;;;;;;;20.40;48.18;101741.44;5077867;28;20074;-57
2022/04/26 08:52:26;;;;;;;11.93;3.40;;;;;;;20.16;46.99;101749.63;5076784;28;20285;-56
2022/04/26 08:54:51;;;;;;;7.80;2.80;;;;;;;20.46;46.95;101751.34;5088752;28;20335;-58
2022/04/26 08:57:17;;;;;;;11.05;3.22;;;;;;;20.26;46.98;101762.63;5082315;28;20277;-57
2022/04/26 08:59:50;;;;;;;9.32;3.25;;;;;;;20.49;45.60;101758.22;5081310;28;20048;-58
2022/04/26 09:02:19;;;;;;;10.10;3.03;;;;;;;20.31;46.06;101759.19;5089427;28;20040;-54
2022/04/26 09:04:59;;;;;;;11.77;3.40;;;;;;;20.29;46.10;101755.88;5077319;28;20285;-55
2022/04/26 09:07:29;;;;;;;9.30;3.27;;;;;;;20.47;45.89;101761.16;5084056;28;20266;-52
2022/04/26 09:10:08;;;;;;;12.90;3.30;;;;;;;20.48;46.22;101767.44;5087487;28;20277;-58
2022/04/26 09:13:04;;;;;;;6.70;2.50;;;;;;;20.87;46.27;101767.66;5076391;28;20297;-57
2022/04/26 09:15:42;;;;;;;4.70;2.33;;;;;;;21.22;45.62;101774.03;5082911;28;20270;-55
2022/04/26 09:18:17;;;;;;;10.93;2.73;;;;;;;21.84;43.03;101783.25;5089442;28;20281;-54
2022/04/26 09:20:44;;;;;;;5.73;2.53;;;;;;;22.27;42.07;101777.31;5060464;28;20052;-57
2022/04/26 09:23:20;;;;;;;9.53;2.97;;;;;;;22.69;41.54;101775.94;5085998;28;20033;-60
2022/04/26 09:25:46;;;;;;;9.57;3.03;;;;;;;23.06;37.43;101784.25;5086228;28;20459;-56
2022/04/26 09:28:24;;;;;;;6.37;2.93;;;;;;;23.76;37.60;101778.09;5077922;28;20289;-56
2022/04/26 09:30:51;;;;;;;2.97;2.03;;;;;;;24.08;35.98;101781.88;5062986;28;20043;-55
2022/04/26 09:33:31;;;;;;;4.80;2.20;;;;;;;24.60;34.65;101782.13;5085372;28;20142;-58
2022/04/26 09:36:05;;;;;;;6.40;2.30;;;;;;;25.10;34.13;101787.19;5086876;28;20040;-58
2022/04/26 09:38:33;;;;;;;7.80;2.70;;;;;;;25.76;32.73;101799.31;5077039;28;20096;-58
2022/04/26 09:41:19;;;;;;;5.53;2.33;;;;;;;26.31;33.33;101806.91;5087678;28;20092;-57
2022/04/26 09:43:58;;;;;;;7.53;2.40;;;;;;;26.75;33.50;101806.16;5073553;28;20049;-58
2022/04/26 09:46:24;;;;;;;5.07;2.60;;;;;;;27.31;32.19;101804.19;5089845;28;20052;-59
2022/04/26 09:48:51;;;;;;;;;;;;;;;27.40;32.10;101806.31;5078208;28;20040;-57
2022/04/26 09:51:16;;;;;;;5.40;2.17;;;;;;;27.57;31.51;101808.72;5085060;28;19939;-57
2022/04/26 09:53:42;;;;;;;;;;;;;;;27.67;30.16;101803.09;5085700;28;20052;-55
2022/04/26 09:56:12;;;;;;;4.17;2.30;;;;;;;28.58;30.52;101820.84;5077821;28;19924;-57
2022/04/26 09:58:38;;;;;;;5.67;2.43;;;;;;;28.25;29.12;101814.38;5089624;28;20037;-58
2022/04/26 10:01:04;;;;;;;5.67;2.70;;;;;;;28.83;29.66;101824.41;5079616;28;20039;-58
2022/04/26 10:03:37;;;;;;;4.87;2.50;;;;;;;29.13;28.40;101821.50;5082964;28;20040;-59
2022/04/26 10:06:05;;;;;;;5.65;2.30;;;;;;;28.97;27.85;101827.22;5087685;28;20033;-59
2022/04/26 10:08:32;;;;;;;4.00;2.15;;;;;;;29.46;27.85;101829.81;5076618;28;20043;-58
2022/04/26 10:11:00;;;;;;;5.22;2.65;;;;;;;29.71;27.77;101827.75;5088141;28;20290;-59
2022/04/26 10:13:31;;;;;;;6.32;2.17;;;;;;;28.37;29.62;101831.25;5082824;28;20039;-58
2022/04/26 10:16:06;;;;;;;7.47;2.15;;;;;;;28.63;29.11;101829.03;5079713;28;20053;-57
2022/04/26 10:18:40;;;;;;;7.63;2.78;;;;;;;29.45;27.40;101831.78;5089559;28;20036;-58
2022/04/26 10:21:07;;;;;;;5.88;2.95;;;;;;;30.78;25.86;101841.75;5079383;28;20032;-58
2022/04/26 10:23:50;;;;;;;5.05;2.45;;;;;;;30.35;26.84;101829.09;5083308;28;20109;-59
2022/04/26 10:26:22;;;;;;;6.18;3.13;;;;;;;30.97;25.72;101845.19;5076857;28;20037;-59
2022/04/26 10:28:50;;;;;;;4.22;2.53;;;;;;;31.24;25.89;101842.66;5064515;28;20033;-60
2022/04/26 10:31:17;;;;;;;7.88;3.03;;;;;;;31.74;24.97;101841.69;5088765;28;20062;-59
2022/04/26 10:33:47;;;;;;;5.47;2.47;;;;;;;31.89;24.75;101843.25;5088209;28;20028;-56
2022/04/26 10:36:28;;;;;;;7.72;2.42;;;;;;;31.27;24.92;101842.06;5080762;28;20044;-58
2022/04/26 10:39:07;;;;;;;4.85;2.60;;;;;;;32.14;24.04;101844.53;5066510;28;20032;-58
2022/04/26 10:41:38;;;;;;;5.40;2.65;;;;;;;32.53;21.74;101847.59;5086242;28;20047;-59
2022/04/26 10:44:13;;;;;;;5.22;2.70;;;;;;;32.93;23.38;101855.00;5076746;28;20107;-60
2022/04/26 10:46:40;;;;;;;6.18;2.55;;;;;;;33.23;22.20;101846.88;5089209;28;20040;-59
2022/04/26 10:49:29;;;;;;;4.43;2.30;;;;;;;33.65;21.66;101860.22;5090179;28;20053;-59
2022/04/26 10:51:57;;;;;;;3.80;2.28;;;;;;;34.03;20.29;101867.81;5086662;28;20045;-59
2022/04/26 10:55:07;;;;;;;7.95;2.20;;;;;;;33.58;22.14;101851.59;5079881;28;20060;-59
2022/04/26 10:57:46;;;;;;;3.42;1.75;;;;;;;34.02;19.77;101860.63;5085396;28;20052;-59
2022/04/26 11:00:27;;;;;;;5.72;2.63;;;;;;;33.55;20.09;101857.78;5091780;28;20040;-58
2022/04/26 11:02:52;;;;;;;3.20;1.70;;;;;;;33.71;21.55;101861.66;5060469;28;20029;-58
2022/04/26 11:05:24;;;;;;;6.07;2.85;;;;;;;33.41;21.21;101846.84;5075856;28;20066;-59
2022/04/26 11:07:50;;;;;;;10.18;2.03;;;;;;;33.95;21.01;101865.81;5088567;28;20028;-59
2022/04/26 11:10:20;;;;;;;4.25;1.85;;;;;;;34.72;19.70;101872.53;5080294;28;20025;-58
2022/04/26 11:12:45;;;;;;;7.18;2.00;;;;;;;35.32;19.50;101869.63;5063184;28;20034;-59
2022/04/26 11:15:19;;;;;;;4.38;2.17;;;;;;;35.85;19.57;101869.91;5088990;28;20025;-57
2022/04/26 11:17:46;;;;;;;6.90;2.90;;;;;;;36.54;18.23;101871.38;5087917;28;20032;-58
2022/04/26 11:20:35;;;;;;;5.60;2.33;;;;;;;35.58;20.37;101868.56;5080843;28;20040;-60
2022/04/26 11:27:59;;;;;;;6.10;3.17;;;;;;;34.85;20.96;101867.88;5061770;28;20029;-59
2022/04/26 11:28:29;;;;;;;6.22;2.50;;;;;;;35.27;18.47;101870.63;5079384;28;20036;-60
2022/04/26 11:30:57;;;;;;;4.53;2.13;;;;;;;36.41;18.85;101871.34;5091500;28;20033;-60
2022/04/26 11:33:24;;;;;;;5.55;2.55;;;;;;;35.46;19.62;101867.38;5084746;28;20069;-59
2022/04/26 11:35:53;;;;;;;9.57;2.30;;;;;;;33.22;20.51;101861.88;5082584;28;20029;-60
2022/04/26 11:38:19;;;;;;;6.90;2.00;;;;;;;32.60;22.12;101866.50;5092244;28;20033;-59
2022/04/26 11:40:52;;;;;;;5.18;2.17;;;;;;;34.47;18.85;101862.03;5079011;28;20032;-59
2022/04/26 11:43:26;;;;;;;8.23;2.20;;;;;;;33.91;19.35;101870.41;5087868;28;20105;-59
2022/04/26 11:45:54;;;;;;;6.88;2.67;;;;;;;31.48;21.28;101870.00;5088094;28;20035;-59
2022/04/26 11:48:25;;;;;;;5.70;2.22;;;;;;;31.11;23.04;101871.94;5079194;28;20041;-59
2022/04/26 11:50:53;;;;;;;14.30;3.90;;;;;;;32.68;21.43;101871.25;5063284;28;20040;-59
2022/04/26 11:53:21;;;;;;;8.68;2.75;;;;;;;32.90;22.98;101877.81;5087690;28;20043;-57
2022/04/26 11:55:57;;;;;;;5.80;2.65;;;;;;;32.83;22.87;101878.28;5087095;28;20029;-58
2022/04/26 11:58:33;;;;;;;8.93;4.00;;;;;;;33.33;21.91;101879.78;5077937;28;20064;-60
2022/04/26 12:01:00;;;;;;;7.32;3.50;;;;;;;34.01;21.80;101883.94;5090506;28;20029;-60
2022/04/26 12:03:29;;;;;;;7.32;4.50;;;;;;;34.32;19.79;101888.41;5084196;28;20096;-59
2022/04/26 12:06:01;;;;;;;4.93;3.00;;;;;;;35.19;20.72;101887.41;5082464;28;20041;-59
2022/04/26 12:08:31;;;;;;;7.07;2.92;;;;;;;36.24;17.38;101885.53;5091661;28;20098;-60
2022/04/26 12:11:21;;;;;;;5.00;3.08;;;;;;;34.73;18.61;101888.84;5080354;28;20036;-59
2022/04/26 12:13:59;;;;;;;4.88;3.08;;;;;;;35.29;19.91;101885.03;5083312;28;20029;-59
2022/04/26 12:16:25;;;;;;;5.20;2.53;;;;;;;34.30;20.09;101895.44;5091972;28;20048;-59
2022/04/26 12:18:56;;;;;;;4.57;2.53;;;;;;;34.53;18.97;101890.47;5079061;28;20040;-59
2022/04/26 12:21:26;;;;;;;6.78;2.63;;;;;;;35.88;20.28;101897.03;5087169;28;20100;-58
2022/04/26 12:24:21;;;;;;;6.03;2.13;;;;;;;36.64;20.18;101887.59;5074876;28;20037;-59
2022/04/26 12:27:02;;;;;;;4.38;2.55;;;;;;;38.28;17.66;101884.53;5078503;28;20033;-59
2022/04/26 12:29:29;;;;;;;6.35;2.92;;;;;;;38.35;17.58;101889.47;5085856;28;20044;-59
2022/04/26 12:31:56;;;;;;;5.13;2.25;;;;;;;37.39;18.13;101887.41;5086682;28;20040;-60
2022/04/26 12:34:29;;;;;;;4.57;2.30;;;;;;;36.96;18.53;101873.84;5077922;28;20151;-59
2022/04/26 12:37:02;;;;;;;7.57;2.70;;;;;;;34.79;19.90;101889.47;5063856;28;20088;-59
2022/04/26 12:39:42;;;;;;;8.02;3.90;;;;;;;35.99;18.18;101902.19;5085781;28;20101;-59
2022/04/26 12:42:09;;;;;;;8.95;4.40;;;;;;;37.31;16.78;101891.97;5089321;28;20047;-58
2022/04/26 12:44:37;;;;;;;6.53;3.10;;;;;;;38.47;16.95;101897.78;5078263;28;20087;-59
2022/04/26 12:52:47;;;;;;;5.40;2.13;;;;;;;38.23;15.89;101893.19;5077962;28;20097;-60
2022/04/26 12:55:31;;;;;;;5.40;2.30;;;;;;;38.64;16.32;101896.56;5087757;28;20115;-60
2022/04/26 12:57:59;;;;;;;6.00;2.22;;;;;;;38.73;15.01;101897.16;5087330;28;20044;-59
2022/04/26 13:00:26;;;;;;;5.32;2.30;;;;;;;37.94;17.06;101892.47;5077633;28;20040;-60
2022/04/26 13:02:56;;;;;;;6.00;2.42;;;;;;;38.52;16.07;101889.13;5089902;28;20040;-59
2022/04/26 13:05:22;;;;;;;4.95;2.25;;;;;;;38.36;16.49;101882.72;5082328;28;20032;-59
2022/04/26 13:07:49;;;;;;;5.18;2.45;;;;;;;39.20;16.67;101872.19;5082746;28;20060;-59
2022/04/26 13:10:19;;;;;;;3.88;1.50;;;;;;;38.34;17.50;101874.72;5062624;28;20068;-60
2022/04/26 13:12:47;;;;;;;7.35;2.78;;;;;;;37.97;17.39;101863.84;5076417;28;20025;-60
2022/04/26 13:15:15;;;;;;;6.20;2.85;;;;;;;37.91;16.52;101868.84;5087703;28;20021;-59
2022/04/26 13:17:41;;;;;;;4.38;1.80;;;;;;;38.14;16.54;101871.84;5084721;28;20058;-60
2022/04/26 13:20:10;;;;;;;3.00;1.95;;;;;;;38.41;18.60;101868.50;5080185;28;20033;-59
2022/04/26 13:22:37;;;;;;;4.53;2.28;;;;;;;39.38;15.43;101874.56;5090829;28;20096;-60
2022/04/26 13:25:04;;;;;;;5.18;2.22;;;;;;;39.67;15.21;101875.06;5074223;28;20045;-60
2022/04/26 13:27:34;;;;;;;3.58;2.05;;;;;;;39.55;16.65;101878.84;5083276;28;20051;-60
2022/04/26 13:29:59;;;;;;;3.50;1.70;;;;;;;39.39;16.13;101877.00;5080938;28;20059;-60
2022/04/26 13:32:25;;;;;;;6.63;1.73;;;;;;;38.27;17.84;101868.94;5090347;28;20096;-60
2022/04/26 13:34:52;;;;;;;8.88;1.90;;;;;;;38.91;16.39;101868.81;5077801;28;20031;-60
2022/04/26 13:37:19;;;;;;;5.22;2.35;;;;;;;39.52;15.15;101886.03;5086622;28;20039;-59
2022/04/26 13:39:45;;;;;;;5.18;2.25;;;;;;;39.90;15.78;101874.28;5084131;28;20028;-60
2022/04/26 13:42:12;;;;;;;4.50;2.00;;;;;;;39.38;15.42;101886.56;5079176;28;20119;-59
2022/04/26 13:44:38;;;;;;;4.53;1.80;;;;;;;39.50;16.79;101881.97;5073975;28;20037;-60
2022/04/26 13:47:06;;;;;;;7.43;2.25;;;;;;;39.26;16.13;101879.13;5079262;28;20054;-60
2022/04/26 13:49:34;;;;;;;3.33;1.67;;;;;;;39.64;16.09;101889.81;5084275;28;20064;-60
2022/04/26 13:52:00;;;;;;;3.05;1.58;;;;;;;39.50;16.30;101884.75;5073522;28;20029;-59
2022/04/26 13:54:27;;;;;;;3.90;1.45;;;;;;;39.40;16.17;101888.97;5090275;28;20033;-59
2022/04/26 13:56:56;;;;;;;3.40;1.80;;;;;;;39.62;15.13;101892.19;5077463;28;20075;-61
2022/04/26 13:59:23;;;;;;;4.82;1.98;;;;;;;39.79;16.06;101888.88;5088144;28;20036;-60
2022/04/26 14:01:54;;;;;;;3.70;1.58;;;;;;;38.66;14.80;101891.44;5088975;28;20043;-60
2022/04/26 14:04:20;;;;;;;2.42;1.60;;;;;;;38.57;16.81;101874.06;5081898;28;20033;-60
2022/04/26 14:06:46;;;;;;;2.35;1.38;;;;;;;39.19;16.28;101886.56;5080228;28;20100;-61
2022/04/26 14:09:12;;;;;;;2.60;1.50;;;;;;;39.72;14.98;101891.56;5091160;28;20037;-60
2022/04/26 14:11:39;;;;;;;5.90;2.67;;;;;;;39.34;14.43;101882.03;5077838;28;20068;-60
2022/04/26 14:22:18;;;;;;;7.18;3.17;;;;;;;40.94;12.99;101886.25;5093059;28;20036;-60
2022/04/26 14:24:44;;;;;;;5.93;3.03;;;;;;;40.56;14.07;101888.13;5068700;28;20045;-60
2022/04/26 14:27:10;;;;;;;6.25;3.42;;;;;;;40.46;14.24;101894.38;5074636;28;20055;-63
2022/04/26 14:29:36;;;;;;;3.83;2.40;;;;;;;40.26;13.16;101889.69;5086800;28;20036;-60
2022/04/26 14:32:02;;;;;;;8.98;4.70;;;;;;;40.09;13.84;101891.00;5083316;28;20104;-60
2022/04/26 14:34:29;;;;;;;15.50;2.92;;;;;;;39.56;13.69;101881.28;5093736;28;20106;-60
2022/04/26 14:36:55;;;;;;;6.72;4.20;;;;;;;39.60;15.30;101886.97;5080731;28;20059;-60
2022/04/26 14:39:21;;;;;;;5.18;3.13;;;;;;;39.84;14.26;101885.81;5089459;28;20057;-60
2022/04/26 14:41:47;;;;;;;6.97;4.50;;;;;;;40.43;13.91;101893.97;5087978;28;20043;-60
2022/04/26 14:44:13;;;;;;;5.72;2.05;;;;;;;40.15;12.43;101894.31;5082452;28;20052;-60
2022/04/26 14:46:40;;;;;;;7.65;4.30;;;;;;;40.26;15.22;101891.66;5065724;28;20040;-61
2022/04/26 14:49:07;;;;;;;5.18;2.85;;;;;;;40.20;12.82;101901.59;5088931;28;20041;-61
2022/04/26 14:51:33;;;;;;;4.72;2.40;;;;;;;40.47;12.75;101899.59;5087024;28;20126;-60
2022/04/26 14:53:58;;;;;;;7.35;4.20;;;;;;;40.73;12.84;101900.81;5089215;28;20086;-60
2022/04/26 14:56:24;;;;;;;5.50;3.85;;;;;;;40.21;13.63;101908.81;5080823;28;20048;-60
2022/04/26 14:58:50;;;;;;;5.80;3.58;;;;;;;38.65;15.43;101891.81;5093089;28;20032;-60
2022/04/26 15:01:16;;;;;;;4.07;1.92;;;;;;;38.27;14.07;101902.47;5071174;28;20032;-60
2022/04/26 15:03:44;;;;;;;6.22;3.55;;;;;;;38.46;13.48;101898.97;5068891;28;20104;-60
2022/04/26 15:06:11;;;;;;;6.32;2.80;;;;;;;37.58;15.40;101892.34;5090241;28;20036;-59
2022/04/26 15:11:21;;;;;;;6.13;3.50;;;;;;;38.97;14.38;101900.88;5088647;28;20037;-60
2022/04/26 15:16:37;;;;;;;6.68;1.50;;;;;;;39.29;12.39;101895.16;5076005;28;20099;-60
2022/04/26 15:19:06;;;;;;;5.07;2.85;;;;;;;39.30;13.07;101893.97;5070235;28;20032;-60
2022/04/26 15:21:32;;;;;;;4.30;2.60;;;;;;;39.34;12.79;101901.63;5082770;28;20059;-60
2022/04/26 15:23:58;;;;;;;5.15;2.30;;;;;;;39.57;14.40;101902.50;5063286;28;20044;-60
2022/04/26 15:26:25;;;;;;;6.32;3.63;;;;;;;39.85;14.31;101903.41;5071060;28;20037;-60
2022/04/26 15:28:51;;;;;;;7.40;4.05;;;;;;;39.71;12.70;101901.16;5074237;28;20041;-60
2022/04/26 15:31:18;;;;;;;6.05;2.45;;;;;;;40.08;11.53;101906.19;5072445;28;20043;-60
2022/04/26 15:33:48;;;;;;;4.88;3.30;;;;;;;40.10;12.64;101917.03;5086510;28;20036;-59
2022/04/26 15:36:16;;;;;;;4.25;2.00;;;;;;;40.45;12.13;101904.00;5081551;28;20028;-59
2022/04/26 15:38:43;;;;;;;4.57;2.38;;;;;;;40.33;13.11;101911.41;5092326;28;20036;-60